sensor_id;sensor_type;location;lat;lon;timestamp;temperature;humidity
463;DHT22;218;51.902;9.542;2022-10-17T00:01:52;18.90;1.00
463;DHT22;218;51.902;9.542;2022-10-17T00:04:20;18.90;1.00
463;DHT22;218;51.902;9.542;2022-10-17T00:06:48;18.90;1.00
463;DHT22;218;51.902;9.542;2022-10-17T00:09:16;18.90;1.00
463;DHT22;218;51.902;9.542;2022-10-17T00:11:43;18.90;1.00
463;DHT22;218;51.902;9.542;2022-10-17T00:14:11;18.80;1.00
463;DHT22;218;51.902;9.542;2022-10-17T00:16:38;18.80;1.00
463;DHT22;218;51.902;9.542;2022-10-17T00:19:05;18.80;1.00
463;DHT22;218;51.902;9.542;2022-10-17T00:21:33;18.80;1.00
463;DHT22;218;51.902;9.542;2022-10-17T00:24:00;18.80;1.00
463;DHT22;218;51.902;9.542;2022-10-17T00:26:29;18.80;1.00
463;DHT22;218;51.902;9.542;2022-10-17T00:28:56;18.80;1.00
463;DHT22;218;51.902;9.542;2022-10-17T00:31:26;18.80;1.00
463;DHT22;218;51.902;9.542;2022-10-17T00:33:53;18.80;1.00
463;DHT22;218;51.902;9.542;2022-10-17T00:36:22;18.90;1.00
463;DHT22;218;51.902;9.542;2022-10-17T00:38:52;18.80;1.00
463;DHT22;218;51.902;9.542;2022-10-17T00:41:23;18.90;1.00
463;DHT22;218;51.902;9.542;2022-10-17T00:43:54;18.90;1.00
463;DHT22;218;51.902;9.542;2022-10-17T00:46:22;18.90;1.00
463;DHT22;218;51.902;9.542;2022-10-17T00:48:53;18.90;1.00
463;DHT22;218;51.902;9.542;2022-10-17T00:51:25;19.60;1.00
463;DHT22;218;51.902;9.542;2022-10-17T00:53:54;18.90;1.00
463;DHT22;218;51.902;9.542;2022-10-17T00:56:22;18.90;1.00
463;DHT22;218;51.902;9.542;2022-10-17T00:58:49;18.90;1.00
463;DHT22;218;51.902;9.542;2022-10-17T01:01:16;18.90;1.00
463;DHT22;218;51.902;9.542;2022-10-17T01:03:43;18.90;1.00
463;DHT22;218;51.902;9.542;2022-10-17T01:06:11;19.00;1.00
463;DHT22;218;51.902;9.542;2022-10-17T01:08:38;19.00;1.00
463;DHT22;218;51.902;9.542;2022-10-17T01:11:12;19.00;1.00
463;DHT22;218;51.902;9.542;2022-10-17T01:13:49;18.90;1.00
463;DHT22;218;51.902;9.542;2022-10-17T01:16:21;18.90;1.00
463;DHT22;218;51.902;9.542;2022-10-17T01:18:58;18.90;1.00
463;DHT22;218;51.902;9.542;2022-10-17T01:27:34;18.80;1.00
463;DHT22;218;51.902;9.542;2022-10-17T01:33:07;18.80;1.00
463;DHT22;218;51.902;9.542;2022-10-17T01:35:39;18.70;1.00
463;DHT22;218;51.902;9.542;2022-10-17T01:38:09;18.70;1.00
463;DHT22;218;51.902;9.542;2022-10-17T01:40:45;18.60;1.00
463;DHT22;218;51.902;9.542;2022-10-17T01:43:21;18.60;1.00
463;DHT22;218;51.902;9.542;2022-10-17T01:45:54;18.60;1.00
463;DHT22;218;51.902;9.542;2022-10-17T01:48:33;18.50;1.00
463;DHT22;218;51.902;9.542;2022-10-17T01:53:38;18.40;1.00
463;DHT22;218;51.902;9.542;2022-10-17T01:56:07;18.30;1.00
463;DHT22;218;51.902;9.542;2022-10-17T01:58:39;18.30;1.00
463;DHT22;218;51.902;9.542;2022-10-17T02:01:10;18.30;1.00
463;DHT22;218;51.902;9.542;2022-10-17T02:03:40;18.20;1.00
463;DHT22;218;51.902;9.542;2022-10-17T02:06:09;18.10;1.00
463;DHT22;218;51.902;9.542;2022-10-17T02:08:41;18.10;1.00
463;DHT22;218;51.902;9.542;2022-10-17T02:11:11;18.00;1.00
463;DHT22;218;51.902;9.542;2022-10-17T02:13:47;18.00;1.00
463;DHT22;218;51.902;9.542;2022-10-17T02:16:24;17.90;1.00
463;DHT22;218;51.902;9.542;2022-10-17T02:19:06;17.90;1.00
463;DHT22;218;51.902;9.542;2022-10-17T02:21:41;17.90;1.00
463;DHT22;218;51.902;9.542;2022-10-17T02:24:17;17.80;1.00
463;DHT22;218;51.902;9.542;2022-10-17T02:31:48;17.80;1.00
463;DHT22;218;51.902;9.542;2022-10-17T02:39:17;17.80;1.00
463;DHT22;218;51.902;9.542;2022-10-17T02:44:13;17.70;1.00
463;DHT22;218;51.902;9.542;2022-10-17T02:46:42;17.70;1.00
463;DHT22;218;51.902;9.542;2022-10-17T02:51:46;17.60;1.00
463;DHT22;218;51.902;9.542;2022-10-17T02:54:19;17.50;1.00
463;DHT22;218;51.902;9.542;2022-10-17T02:56:52;17.50;1.00
463;DHT22;218;51.902;9.542;2022-10-17T02:59:22;17.50;1.00
463;DHT22;218;51.902;9.542;2022-10-17T03:04:18;17.50;1.00
463;DHT22;218;51.902;9.542;2022-10-17T03:06:47;17.50;1.00
463;DHT22;218;51.902;9.542;2022-10-17T03:09:15;17.50;1.00
463;DHT22;218;51.902;9.542;2022-10-17T03:14:09;17.40;1.00
463;DHT22;218;51.902;9.542;2022-10-17T03:16:36;17.40;1.00
463;DHT22;218;51.902;9.542;2022-10-17T03:21:30;17.40;1.00
463;DHT22;218;51.902;9.542;2022-10-17T03:36:17;17.30;1.00
463;DHT22;218;51.902;9.542;2022-10-17T03:46:07;17.20;1.00
463;DHT22;218;51.902;9.542;2022-10-17T03:56:08;17.30;1.00
463;DHT22;218;51.902;9.542;2022-10-17T03:58:36;17.30;1.00
463;DHT22;218;51.902;9.542;2022-10-17T04:01:05;17.30;1.00
463;DHT22;218;51.902;9.542;2022-10-17T04:18:24;17.40;1.00
463;DHT22;218;51.902;9.542;2022-10-17T04:20:51;17.40;1.00
463;DHT22;218;51.902;9.542;2022-10-17T04:25:45;17.40;1.00
463;DHT22;218;51.902;9.542;2022-10-17T04:52:49;17.20;1.00
463;DHT22;218;51.902;9.542;2022-10-17T04:57:43;17.20;1.00
463;DHT22;218;51.902;9.542;2022-10-17T05:17:24;17.20;1.00
463;DHT22;218;51.902;9.542;2022-10-17T05:19:50;17.20;1.00
463;DHT22;218;51.902;9.542;2022-10-17T05:29:40;17.10;1.00
463;DHT22;218;51.902;9.542;2022-10-17T05:37:02;17.10;1.00
463;DHT22;218;51.902;9.542;2022-10-17T05:46:52;17.00;1.00
463;DHT22;218;51.902;9.542;2022-10-17T05:56:40;17.10;1.00
463;DHT22;218;51.902;9.542;2022-10-17T06:13:52;17.10;1.00
463;DHT22;218;51.902;9.542;2022-10-17T06:21:20;17.20;1.00
463;DHT22;218;51.902;9.542;2022-10-17T06:31:11;17.20;1.00
463;DHT22;218;51.902;9.542;2022-10-17T06:36:10;17.30;1.00
463;DHT22;218;51.902;9.542;2022-10-17T06:38:38;17.30;1.00
463;DHT22;218;51.902;9.542;2022-10-17T06:43:33;17.40;1.00
463;DHT22;218;51.902;9.542;2022-10-17T06:46:00;17.40;1.00
463;DHT22;218;51.902;9.542;2022-10-17T06:48:27;17.50;1.00
463;DHT22;218;51.902;9.542;2022-10-17T06:50:59;17.50;1.00
463;DHT22;218;51.902;9.542;2022-10-17T07:00:57;17.60;1.00
463;DHT22;218;51.902;9.542;2022-10-17T07:13:15;17.80;1.00
463;DHT22;218;51.902;9.542;2022-10-17T07:20:37;17.90;1.00
463;DHT22;218;51.902;9.542;2022-10-17T07:23:05;17.90;1.00
463;DHT22;218;51.902;9.542;2022-10-17T07:25:33;18.00;1.00
463;DHT22;218;51.902;9.542;2022-10-17T07:28:01;18.00;1.00
463;DHT22;218;51.902;9.542;2022-10-17T07:32:55;18.10;1.00
463;DHT22;218;51.902;9.542;2022-10-17T07:37:50;18.20;1.00
463;DHT22;218;51.902;9.542;2022-10-17T07:42:46;18.40;1.00
463;DHT22;218;51.902;9.542;2022-10-17T07:45:13;18.40;1.00
463;DHT22;218;51.902;9.542;2022-10-17T07:47:40;18.50;1.00
463;DHT22;218;51.902;9.542;2022-10-17T07:52:35;18.60;1.00
463;DHT22;218;51.902;9.542;2022-10-17T07:55:02;18.70;1.00
463;DHT22;218;51.902;9.542;2022-10-17T07:57:29;18.80;1.00
463;DHT22;218;51.902;9.542;2022-10-17T08:02:26;18.90;1.00
463;DHT22;218;51.902;9.542;2022-10-17T08:04:53;19.00;1.00
463;DHT22;218;51.902;9.542;2022-10-17T08:07:20;19.10;1.00
463;DHT22;218;51.902;9.542;2022-10-17T08:09:47;19.10;1.00
463;DHT22;218;51.902;9.542;2022-10-17T08:12:14;19.20;1.00
463;DHT22;218;51.902;9.542;2022-10-17T08:14:42;19.30;1.00
463;DHT22;218;51.902;9.542;2022-10-17T08:17:10;19.40;1.00
463;DHT22;218;51.902;9.542;2022-10-17T08:19:38;19.40;1.00
463;DHT22;218;51.902;9.542;2022-10-17T08:22:06;19.60;1.00
463;DHT22;218;51.902;9.542;2022-10-17T08:24:33;19.60;1.00
463;DHT22;218;51.902;9.542;2022-10-17T08:27:00;19.70;1.00
463;DHT22;218;51.902;9.542;2022-10-17T08:29:28;19.80;1.00
463;DHT22;218;51.902;9.542;2022-10-17T08:31:57;19.90;1.00
463;DHT22;218;51.902;9.542;2022-10-17T08:34:25;20.00;1.00
463;DHT22;218;51.902;9.542;2022-10-17T08:36:52;20.10;1.00
463;DHT22;218;51.902;9.542;2022-10-17T08:39:19;20.20;1.00
463;DHT22;218;51.902;9.542;2022-10-17T08:41:57;20.30;1.00
463;DHT22;218;51.902;9.542;2022-10-17T08:44:36;20.50;1.00
463;DHT22;218;51.902;9.542;2022-10-17T08:47:10;20.60;1.00
463;DHT22;218;51.902;9.542;2022-10-17T08:49:44;20.70;1.00
463;DHT22;218;51.902;9.542;2022-10-17T08:52:18;20.80;1.00
463;DHT22;218;51.902;9.542;2022-10-17T08:54:47;20.90;1.00
463;DHT22;218;51.902;9.542;2022-10-17T08:57:16;21.00;1.00
463;DHT22;218;51.902;9.542;2022-10-17T08:59:44;21.10;1.00
463;DHT22;218;51.902;9.542;2022-10-17T09:02:30;21.20;1.00
463;DHT22;218;51.902;9.542;2022-10-17T09:05:17;21.30;1.00
463;DHT22;218;51.902;9.542;2022-10-17T09:07:54;21.50;1.00
463;DHT22;218;51.902;9.542;2022-10-17T09:10:29;21.60;1.00
463;DHT22;218;51.902;9.542;2022-10-17T09:13:08;21.70;1.00
463;DHT22;218;51.902;9.542;2022-10-17T09:15:50;21.80;1.00
463;DHT22;218;51.902;9.542;2022-10-17T09:18:22;21.80;1.00
463;DHT22;218;51.902;9.542;2022-10-17T09:20:54;22.00;1.00
463;DHT22;218;51.902;9.542;2022-10-17T09:23:24;22.10;1.00
463;DHT22;218;51.902;9.542;2022-10-17T09:25:53;22.20;1.00
463;DHT22;218;51.902;9.542;2022-10-17T09:28:24;22.30;1.00
463;DHT22;218;51.902;9.542;2022-10-17T09:30:55;22.30;1.00
463;DHT22;218;51.902;9.542;2022-10-17T09:33:25;22.40;1.00
463;DHT22;218;51.902;9.542;2022-10-17T09:35:55;22.50;1.00
463;DHT22;218;51.902;9.542;2022-10-17T09:40:55;22.70;1.00
463;DHT22;218;51.902;9.542;2022-10-17T09:43:25;22.70;1.00
463;DHT22;218;51.902;9.542;2022-10-17T09:46:01;22.80;1.00
463;DHT22;218;51.902;9.542;2022-10-17T09:48:35;22.90;1.00
463;DHT22;218;51.902;9.542;2022-10-17T09:51:07;23.00;1.00
463;DHT22;218;51.902;9.542;2022-10-17T09:53:37;23.00;1.00
463;DHT22;218;51.902;9.542;2022-10-17T09:56:10;23.10;1.00
463;DHT22;218;51.902;9.542;2022-10-17T09:58:43;23.20;1.00
463;DHT22;218;51.902;9.542;2022-10-17T10:01:20;23.20;1.00
463;DHT22;218;51.902;9.542;2022-10-17T10:04:07;23.30;1.00
463;DHT22;218;51.902;9.542;2022-10-17T10:06:40;23.40;1.00
463;DHT22;218;51.902;9.542;2022-10-17T10:09:21;23.50;1.00
463;DHT22;218;51.902;9.542;2022-10-17T10:11:52;23.60;1.00
463;DHT22;218;51.902;9.542;2022-10-17T10:14:22;23.70;1.00
463;DHT22;218;51.902;9.542;2022-10-17T10:16:51;23.70;1.00
463;DHT22;218;51.902;9.542;2022-10-17T10:19:28;23.90;1.00
463;DHT22;218;51.902;9.542;2022-10-17T10:21:59;24.00;1.00
463;DHT22;218;51.902;9.542;2022-10-17T10:24:27;24.00;1.00
463;DHT22;218;51.902;9.542;2022-10-17T10:26:56;24.10;1.00
463;DHT22;218;51.902;9.542;2022-10-17T10:29:27;24.20;1.00
463;DHT22;218;51.902;9.542;2022-10-17T10:31:58;24.30;1.00
463;DHT22;218;51.902;9.542;2022-10-17T10:34:34;24.50;1.00
463;DHT22;218;51.902;9.542;2022-10-17T10:37:15;24.50;1.00
463;DHT22;218;51.902;9.542;2022-10-17T10:39:47;24.60;1.00
463;DHT22;218;51.902;9.542;2022-10-17T10:42:27;24.70;1.00
463;DHT22;218;51.902;9.542;2022-10-17T10:45:00;24.80;1.00
463;DHT22;218;51.902;9.542;2022-10-17T10:47:28;24.90;1.00
463;DHT22;218;51.902;9.542;2022-10-17T10:50:22;24.90;1.00
463;DHT22;218;51.902;9.542;2022-10-17T10:52:56;25.00;1.00
463;DHT22;218;51.902;9.542;2022-10-17T10:55:29;25.10;1.00
463;DHT22;218;51.902;9.542;2022-10-17T10:58:02;25.10;1.00
463;DHT22;218;51.902;9.542;2022-10-17T11:00:32;25.20;1.00
463;DHT22;218;51.902;9.542;2022-10-17T11:03:08;25.30;1.00
463;DHT22;218;51.902;9.542;2022-10-17T11:05:41;25.30;1.00
463;DHT22;218;51.902;9.542;2022-10-17T11:08:19;25.40;1.00
463;DHT22;218;51.902;9.542;2022-10-17T11:11:02;25.50;1.00
463;DHT22;218;51.902;9.542;2022-10-17T11:13:36;25.60;1.00
463;DHT22;218;51.902;9.542;2022-10-17T11:16:15;25.60;1.00
463;DHT22;218;51.902;9.542;2022-10-17T11:18:52;25.80;1.00
463;DHT22;218;51.902;9.542;2022-10-17T11:21:31;25.80;1.00
463;DHT22;218;51.902;9.542;2022-10-17T11:24:06;25.90;1.00
463;DHT22;218;51.902;9.542;2022-10-17T11:26:41;26.00;1.00
463;DHT22;218;51.902;9.542;2022-10-17T11:29:12;26.10;1.00
463;DHT22;218;51.902;9.542;2022-10-17T11:31:43;26.00;1.00
463;DHT22;218;51.902;9.542;2022-10-17T11:34:17;26.20;1.00
463;DHT22;218;51.902;9.542;2022-10-17T11:36:50;26.20;1.00
463;DHT22;218;51.902;9.542;2022-10-17T11:39:26;26.30;1.00
463;DHT22;218;51.902;9.542;2022-10-17T11:41:58;26.40;1.00
463;DHT22;218;51.902;9.542;2022-10-17T11:44:30;26.40;1.00
463;DHT22;218;51.902;9.542;2022-10-17T11:47:03;26.60;1.00
463;DHT22;218;51.902;9.542;2022-10-17T11:49:35;26.60;1.00
463;DHT22;218;51.902;9.542;2022-10-17T11:52:15;26.70;1.00
463;DHT22;218;51.902;9.542;2022-10-17T11:54:50;26.80;1.00
463;DHT22;218;51.902;9.542;2022-10-17T11:57:39;26.90;1.00
463;DHT22;218;51.902;9.542;2022-10-17T12:00:24;27.00;1.00
463;DHT22;218;51.902;9.542;2022-10-17T12:02:59;27.10;1.00
463;DHT22;218;51.902;9.542;2022-10-17T12:05:36;27.20;1.00
463;DHT22;218;51.902;9.542;2022-10-17T12:08:10;27.30;1.00
463;DHT22;218;51.902;9.542;2022-10-17T12:10:44;27.30;1.00
463;DHT22;218;51.902;9.542;2022-10-17T12:13:49;27.40;1.00
463;DHT22;218;51.902;9.542;2022-10-17T12:16:37;27.50;1.00
463;DHT22;218;51.902;9.542;2022-10-17T12:19:28;27.60;1.00
463;DHT22;218;51.902;9.542;2022-10-17T12:22:03;27.60;1.00
463;DHT22;218;51.902;9.542;2022-10-17T12:24:38;27.70;1.00
463;DHT22;218;51.902;9.542;2022-10-17T12:27:40;27.70;1.00
463;DHT22;218;51.902;9.542;2022-10-17T12:30:29;27.80;1.00
463;DHT22;218;51.902;9.542;2022-10-17T12:33:02;27.80;1.00
463;DHT22;218;51.902;9.542;2022-10-17T12:35:33;27.90;1.00
463;DHT22;218;51.902;9.542;2022-10-17T12:38:22;27.90;1.00
463;DHT22;218;51.902;9.542;2022-10-17T12:41:03;27.90;1.00
463;DHT22;218;51.902;9.542;2022-10-17T12:46:54;28.00;1.00
463;DHT22;218;51.902;9.542;2022-10-17T12:49:41;28.10;1.00
463;DHT22;218;51.902;9.542;2022-10-17T12:52:28;28.10;1.00
463;DHT22;218;51.902;9.542;2022-10-17T12:55:16;28.20;1.00
463;DHT22;218;51.902;9.542;2022-10-17T12:57:50;28.20;1.00
463;DHT22;218;51.902;9.542;2022-10-17T13:00:26;28.20;1.00
463;DHT22;218;51.902;9.542;2022-10-17T13:03:01;28.20;1.00
463;DHT22;218;51.902;9.542;2022-10-17T13:05:35;28.20;1.00
463;DHT22;218;51.902;9.542;2022-10-17T13:08:05;28.20;1.00
463;DHT22;218;51.902;9.542;2022-10-17T13:10:37;28.20;1.00
463;DHT22;218;51.902;9.542;2022-10-17T13:13:12;28.20;1.00
463;DHT22;218;51.902;9.542;2022-10-17T13:15:47;28.10;1.00
463;DHT22;218;51.902;9.542;2022-10-17T13:18:19;28.10;1.00
463;DHT22;218;51.902;9.542;2022-10-17T13:20:55;28.10;1.00
463;DHT22;218;51.902;9.542;2022-10-17T13:23:23;28.10;1.00
463;DHT22;218;51.902;9.542;2022-10-17T13:26:06;28.00;1.00
463;DHT22;218;51.902;9.542;2022-10-17T13:28:33;28.00;1.00
463;DHT22;218;51.902;9.542;2022-10-17T13:31:02;28.00;1.00
463;DHT22;218;51.902;9.542;2022-10-17T13:33:33;27.90;1.00
463;DHT22;218;51.902;9.542;2022-10-17T13:36:02;27.90;1.00
463;DHT22;218;51.902;9.542;2022-10-17T13:38:31;27.90;1.00
463;DHT22;218;51.902;9.542;2022-10-17T13:41:00;27.80;1.00
463;DHT22;218;51.902;9.542;2022-10-17T13:43:30;27.80;1.00
463;DHT22;218;51.902;9.542;2022-10-17T13:46:02;27.80;1.00
463;DHT22;218;51.902;9.542;2022-10-17T13:48:32;27.80;1.00
463;DHT22;218;51.902;9.542;2022-10-17T13:51:02;27.70;1.00
463;DHT22;218;51.902;9.542;2022-10-17T13:53:32;27.70;1.00
463;DHT22;218;51.902;9.542;2022-10-17T13:56:02;27.70;1.00
463;DHT22;218;51.902;9.542;2022-10-17T13:58:38;27.60;1.00
463;DHT22;218;51.902;9.542;2022-10-17T14:01:07;27.60;1.00
463;DHT22;218;51.902;9.542;2022-10-17T14:03:34;27.60;1.00
463;DHT22;218;51.902;9.542;2022-10-17T14:06:13;27.60;1.00
463;DHT22;218;51.902;9.542;2022-10-17T14:08:52;27.60;1.00
463;DHT22;218;51.902;9.542;2022-10-17T14:11:28;27.50;1.00
463;DHT22;218;51.902;9.542;2022-10-17T14:13:57;27.50;1.00
463;DHT22;218;51.902;9.542;2022-10-17T14:16:33;27.50;1.00
463;DHT22;218;51.902;9.542;2022-10-17T14:19:01;27.50;1.00
463;DHT22;218;51.902;9.542;2022-10-17T14:21:28;27.40;1.00
463;DHT22;218;51.902;9.542;2022-10-17T14:24:13;27.40;1.00
463;DHT22;218;51.902;9.542;2022-10-17T14:26:47;27.40;1.00
463;DHT22;218;51.902;9.542;2022-10-17T14:29:22;27.40;1.00
463;DHT22;218;51.902;9.542;2022-10-17T14:32:00;27.40;1.00
463;DHT22;218;51.902;9.542;2022-10-17T14:34:30;27.30;1.00
463;DHT22;218;51.902;9.542;2022-10-17T14:36:58;27.30;1.00
463;DHT22;218;51.902;9.542;2022-10-17T14:39:27;27.20;1.00
463;DHT22;218;51.902;9.542;2022-10-17T14:41:55;27.20;1.00
463;DHT22;218;51.902;9.542;2022-10-17T14:44:25;27.20;1.00
463;DHT22;218;51.902;9.542;2022-10-17T14:46:58;27.20;1.00
463;DHT22;218;51.902;9.542;2022-10-17T14:49:34;27.20;1.00
463;DHT22;218;51.902;9.542;2022-10-17T14:52:29;27.20;1.00
463;DHT22;218;51.902;9.542;2022-10-17T14:54:58;27.20;1.00
463;DHT22;218;51.902;9.542;2022-10-17T14:57:40;27.20;1.00
463;DHT22;218;51.902;9.542;2022-10-17T15:00:12;27.10;1.00
463;DHT22;218;51.902;9.542;2022-10-17T15:02:43;27.10;1.00
463;DHT22;218;51.902;9.542;2022-10-17T15:05:11;27.10;1.00
463;DHT22;218;51.902;9.542;2022-10-17T15:07:40;27.10;1.00
463;DHT22;218;51.902;9.542;2022-10-17T15:10:23;27.00;1.00
463;DHT22;218;51.902;9.542;2022-10-17T15:12:50;27.00;1.00
463;DHT22;218;51.902;9.542;2022-10-17T15:15:18;26.90;1.00
463;DHT22;218;51.902;9.542;2022-10-17T15:17:47;26.90;1.00
463;DHT22;218;51.902;9.542;2022-10-17T15:20:16;26.90;1.00
463;DHT22;218;51.902;9.542;2022-10-17T15:22:44;26.80;1.00
463;DHT22;218;51.902;9.542;2022-10-17T15:25:12;26.80;1.00
463;DHT22;218;51.902;9.542;2022-10-17T15:27:39;26.70;1.00
463;DHT22;218;51.902;9.542;2022-10-17T15:30:16;26.70;1.00
463;DHT22;218;51.902;9.542;2022-10-17T15:32:44;26.70;1.00
463;DHT22;218;51.902;9.542;2022-10-17T15:35:14;26.60;1.00
463;DHT22;218;51.902;9.542;2022-10-17T15:37:42;26.60;1.00
463;DHT22;218;51.902;9.542;2022-10-17T15:42:41;26.50;1.00
463;DHT22;218;51.902;9.542;2022-10-17T15:45:09;26.40;1.00
463;DHT22;218;51.902;9.542;2022-10-17T15:47:37;26.40;1.00
463;DHT22;218;51.902;9.542;2022-10-17T15:50:05;26.40;1.00
463;DHT22;218;51.902;9.542;2022-10-17T15:52:34;26.30;1.00
463;DHT22;218;51.902;9.542;2022-10-17T15:55:01;26.30;1.00
463;DHT22;218;51.902;9.542;2022-10-17T15:57:32;26.20;1.00
463;DHT22;218;51.902;9.542;2022-10-17T16:00:00;26.20;1.00
463;DHT22;218;51.902;9.542;2022-10-17T16:02:27;26.10;1.00
463;DHT22;218;51.902;9.542;2022-10-17T16:04:53;26.10;1.00
463;DHT22;218;51.902;9.542;2022-10-17T16:07:21;26.10;1.00
463;DHT22;218;51.902;9.542;2022-10-17T16:09:49;26.00;1.00
463;DHT22;218;51.902;9.542;2022-10-17T16:12:19;26.00;1.00
463;DHT22;218;51.902;9.542;2022-10-17T16:14:47;25.90;1.00
463;DHT22;218;51.902;9.542;2022-10-17T16:17:15;25.90;1.00
463;DHT22;218;51.902;9.542;2022-10-17T16:19:42;25.80;1.00
463;DHT22;218;51.902;9.542;2022-10-17T16:22:17;25.80;1.00
463;DHT22;218;51.902;9.542;2022-10-17T16:24:45;25.80;1.00
463;DHT22;218;51.902;9.542;2022-10-17T16:27:13;25.70;1.00
463;DHT22;218;51.902;9.542;2022-10-17T16:29:40;25.50;1.00
463;DHT22;218;51.902;9.542;2022-10-17T16:32:08;25.50;1.00
463;DHT22;218;51.902;9.542;2022-10-17T16:34:35;25.50;1.00
463;DHT22;218;51.902;9.542;2022-10-17T16:37:02;25.50;1.00
463;DHT22;218;51.902;9.542;2022-10-17T16:39:29;25.40;1.00
463;DHT22;218;51.902;9.542;2022-10-17T16:41:55;25.30;1.00
463;DHT22;218;51.902;9.542;2022-10-17T16:44:24;25.30;1.00
463;DHT22;218;51.902;9.542;2022-10-17T16:46:51;25.20;1.00
463;DHT22;218;51.902;9.542;2022-10-17T16:49:17;25.20;1.00
463;DHT22;218;51.902;9.542;2022-10-17T16:51:47;25.10;1.00
463;DHT22;218;51.902;9.542;2022-10-17T16:54:14;25.10;1.00
463;DHT22;218;51.902;9.542;2022-10-17T16:56:41;25.00;1.00
463;DHT22;218;51.902;9.542;2022-10-17T16:59:09;25.00;1.00
463;DHT22;218;51.902;9.542;2022-10-17T17:01:38;24.90;1.00
463;DHT22;218;51.902;9.542;2022-10-17T17:04:06;24.90;1.00
463;DHT22;218;51.902;9.542;2022-10-17T17:06:35;24.80;1.00
463;DHT22;218;51.902;9.542;2022-10-17T17:09:02;24.70;1.00
463;DHT22;218;51.902;9.542;2022-10-17T17:11:29;24.70;1.00
463;DHT22;218;51.902;9.542;2022-10-17T17:13:57;24.70;1.00
463;DHT22;218;51.902;9.542;2022-10-17T17:16:27;24.70;1.00
463;DHT22;218;51.902;9.542;2022-10-17T17:18:57;24.60;1.00
463;DHT22;218;51.902;9.542;2022-10-17T17:21:24;24.60;1.00
463;DHT22;218;51.902;9.542;2022-10-17T17:23:52;24.60;1.00
463;DHT22;218;51.902;9.542;2022-10-17T17:26:21;24.50;1.00
463;DHT22;218;51.902;9.542;2022-10-17T17:28:49;24.50;1.00
463;DHT22;218;51.902;9.542;2022-10-17T17:31:19;24.50;1.00
463;DHT22;218;51.902;9.542;2022-10-17T17:33:47;24.50;1.00
463;DHT22;218;51.902;9.542;2022-10-17T17:36:17;24.50;1.00
463;DHT22;218;51.902;9.542;2022-10-17T17:38:45;24.40;1.00
463;DHT22;218;51.902;9.542;2022-10-17T17:41:13;24.30;1.00
463;DHT22;218;51.902;9.542;2022-10-17T17:43:40;24.30;1.00
463;DHT22;218;51.902;9.542;2022-10-17T17:46:08;24.30;1.00
463;DHT22;218;51.902;9.542;2022-10-17T17:48:36;24.20;1.00
463;DHT22;218;51.902;9.542;2022-10-17T17:51:03;24.20;1.00
463;DHT22;218;51.902;9.542;2022-10-17T17:53:32;24.10;1.00
463;DHT22;218;51.902;9.542;2022-10-17T17:56:03;24.10;1.00
463;DHT22;218;51.902;9.542;2022-10-17T17:58:31;24.10;1.00
463;DHT22;218;51.902;9.542;2022-10-17T18:00:58;24.00;1.00
463;DHT22;218;51.902;9.542;2022-10-17T18:03:26;24.00;1.00
463;DHT22;218;51.902;9.542;2022-10-17T18:05:53;24.00;1.00
463;DHT22;218;51.902;9.542;2022-10-17T18:08:20;23.90;1.00
463;DHT22;218;51.902;9.542;2022-10-17T18:10:49;23.90;1.00
463;DHT22;218;51.902;9.542;2022-10-17T18:13:19;23.90;1.00
463;DHT22;218;51.902;9.542;2022-10-17T18:15:46;23.80;1.00
463;DHT22;218;51.902;9.542;2022-10-17T18:18:16;23.80;1.00
463;DHT22;218;51.902;9.542;2022-10-17T18:20:43;23.70;1.00
463;DHT22;218;51.902;9.542;2022-10-17T18:23:10;23.70;1.00
463;DHT22;218;51.902;9.542;2022-10-17T18:25:37;23.70;1.00
463;DHT22;218;51.902;9.542;2022-10-17T18:28:05;23.70;1.00
463;DHT22;218;51.902;9.542;2022-10-17T18:30:35;23.60;1.00
463;DHT22;218;51.902;9.542;2022-10-17T18:33:03;23.60;1.00
463;DHT22;218;51.902;9.542;2022-10-17T18:35:30;23.60;1.00
463;DHT22;218;51.902;9.542;2022-10-17T18:37:56;23.60;1.00
463;DHT22;218;51.902;9.542;2022-10-17T18:40:23;23.60;1.00
463;DHT22;218;51.902;9.542;2022-10-17T18:42:52;23.60;1.00
463;DHT22;218;51.902;9.542;2022-10-17T18:45:20;23.60;1.00
463;DHT22;218;51.902;9.542;2022-10-17T18:47:47;23.60;1.00
463;DHT22;218;51.902;9.542;2022-10-17T18:50:17;23.60;1.00
463;DHT22;218;51.902;9.542;2022-10-17T18:52:45;23.60;1.00
463;DHT22;218;51.902;9.542;2022-10-17T18:55:12;23.60;1.00
463;DHT22;218;51.902;9.542;2022-10-17T18:57:39;23.60;1.00
463;DHT22;218;51.902;9.542;2022-10-17T19:00:07;23.60;1.00
463;DHT22;218;51.902;9.542;2022-10-17T19:02:36;23.60;1.00
463;DHT22;218;51.902;9.542;2022-10-17T19:05:04;23.50;1.00
463;DHT22;218;51.902;9.542;2022-10-17T19:07:31;23.50;1.00
463;DHT22;218;51.902;9.542;2022-10-17T19:09:57;23.50;1.00
463;DHT22;218;51.902;9.542;2022-10-17T19:12:24;23.50;1.00
463;DHT22;218;51.902;9.542;2022-10-17T19:14:51;23.40;1.00
463;DHT22;218;51.902;9.542;2022-10-17T19:17:23;23.40;1.00
463;DHT22;218;51.902;9.542;2022-10-17T19:19:51;23.40;1.00
463;DHT22;218;51.902;9.542;2022-10-17T19:22:19;23.40;1.00
463;DHT22;218;51.902;9.542;2022-10-17T19:24:46;23.40;1.00
463;DHT22;218;51.902;9.542;2022-10-17T19:27:13;23.30;1.00
463;DHT22;218;51.902;9.542;2022-10-17T19:29:40;23.30;1.00
463;DHT22;218;51.902;9.542;2022-10-17T19:32:09;23.30;1.00
463;DHT22;218;51.902;9.542;2022-10-17T19:34:36;23.20;1.00
463;DHT22;218;51.902;9.542;2022-10-17T19:37:04;23.20;1.00
463;DHT22;218;51.902;9.542;2022-10-17T19:39:31;23.20;1.00
463;DHT22;218;51.902;9.542;2022-10-17T19:41:58;23.20;1.00
463;DHT22;218;51.902;9.542;2022-10-17T19:44:26;23.10;1.00
463;DHT22;218;51.902;9.542;2022-10-17T19:46:53;23.10;1.00
463;DHT22;218;51.902;9.542;2022-10-17T19:49:20;23.10;1.00
463;DHT22;218;51.902;9.542;2022-10-17T19:51:47;23.00;1.00
463;DHT22;218;51.902;9.542;2022-10-17T19:54:15;23.00;1.00
463;DHT22;218;51.902;9.542;2022-10-17T19:56:45;23.00;1.00
463;DHT22;218;51.902;9.542;2022-10-17T19:59:14;23.00;1.00
463;DHT22;218;51.902;9.542;2022-10-17T20:01:45;22.90;1.00
463;DHT22;218;51.902;9.542;2022-10-17T20:04:13;22.90;1.00
463;DHT22;218;51.902;9.542;2022-10-17T20:06:40;22.80;1.00
463;DHT22;218;51.902;9.542;2022-10-17T20:09:09;22.80;1.00
463;DHT22;218;51.902;9.542;2022-10-17T20:11:38;22.80;1.00
463;DHT22;218;51.902;9.542;2022-10-17T20:14:09;22.70;1.00
463;DHT22;218;51.902;9.542;2022-10-17T20:16:36;22.70;1.00
463;DHT22;218;51.902;9.542;2022-10-17T20:19:05;22.70;1.00
463;DHT22;218;51.902;9.542;2022-10-17T20:21:32;22.70;1.00
463;DHT22;218;51.902;9.542;2022-10-17T20:24:03;22.70;1.00
463;DHT22;218;51.902;9.542;2022-10-17T20:26:33;22.60;1.00
463;DHT22;218;51.902;9.542;2022-10-17T20:29:04;22.60;1.00
463;DHT22;218;51.902;9.542;2022-10-17T20:31:33;22.60;1.00
463;DHT22;218;51.902;9.542;2022-10-17T20:34:02;22.60;1.00
463;DHT22;218;51.902;9.542;2022-10-17T20:36:30;22.60;1.00
463;DHT22;218;51.902;9.542;2022-10-17T20:39:04;22.60;1.00
463;DHT22;218;51.902;9.542;2022-10-17T20:41:33;22.60;1.00
463;DHT22;218;51.902;9.542;2022-10-17T20:44:05;22.60;1.00
463;DHT22;218;51.902;9.542;2022-10-17T20:46:34;22.60;1.00
463;DHT22;218;51.902;9.542;2022-10-17T20:49:03;22.60;1.00
463;DHT22;218;51.902;9.542;2022-10-17T20:51:32;22.50;1.00
463;DHT22;218;51.902;9.542;2022-10-17T20:54:04;22.60;1.00
463;DHT22;218;51.902;9.542;2022-10-17T20:56:35;22.50;1.00
463;DHT22;218;51.902;9.542;2022-10-17T20:59:05;22.50;1.00
463;DHT22;218;51.902;9.542;2022-10-17T21:01:33;22.50;1.00